Time;durP1;ratioP1;P1;durP2;ratioP2;P2;SDS_P1;SDS_P2;PMS_P1;PMS_P2;Temp;Humidity;BMP_temperature;BMP_pressure;BME280_temperature;BME280_humidity;BME280_pressure;Samples;Min_cycle;Max_cycle;Signal;HPM_P1;HPM_P2
2022/01/28 00:01:02;;;;;;;13.03;2.50;;;6.10;99.90;;;;;;5036009;28;20459;-80
2022/01/28 00:03:31;;;;;;;11.63;2.83;;;6.10;99.90;;;;;;5033750;28;20452;-81
2022/01/28 00:05:58;;;;;;;11.40;3.07;;;6.10;99.90;;;;;;5022779;28;20969;-83
2022/01/28 00:08:25;;;;;;;14.13;2.77;;;6.00;99.90;;;;;;5035639;28;20558;-81
2022/01/28 00:10:53;;;;;;;17.13;3.80;;;6.00;99.90;;;;;;5026611;28;20451;-82
2022/01/28 00:13:22;;;;;;;10.57;3.20;;;6.00;99.90;;;;;;5031683;28;20467;-82
2022/01/28 00:19:07;;;;;;;10.03;2.37;;;5.90;99.90;;;;;;4994730;28;20489;-83
2022/01/28 00:38:05;;;;;;;5.73;2.03;;;5.80;99.90;;;;;;5034901;28;20489;-83
2022/01/28 00:40:33;;;;;;;10.60;2.83;;;5.80;99.90;;;;;;5037083;28;20460;-83
2022/01/28 00:43:01;;;;;;;6.43;2.07;;;5.80;99.90;;;;;;5039754;28;20524;-83
2022/01/28 00:45:28;;;;;;;9.27;3.23;;;5.90;99.90;;;;;;5040999;28;20457;-84
2022/01/28 00:47:56;;;;;;;17.17;3.10;;;5.80;99.90;;;;;;5031943;28;20466;-83
2022/01/28 00:50:24;;;;;;;9.90;3.07;;;5.80;99.90;;;;;;5042375;28;20457;-83
2022/01/28 00:52:51;;;;;;;12.27;2.90;;;5.80;99.90;;;;;;5038891;28;20965;-80
2022/01/28 00:55:18;;;;;;;10.90;3.43;;;5.80;99.90;;;;;;5058411;28;20486;-81
2022/01/28 00:57:45;;;;;;;19.80;2.80;;;5.70;99.90;;;;;;5044269;28;20489;-84
2022/01/28 01:00:13;;;;;;;12.17;3.50;;;5.80;99.90;;;;;;5041317;28;21157;-84
2022/01/28 01:02:40;;;;;;;12.20;3.70;;;5.70;99.90;;;;;;5039889;28;20800;-83
2022/01/28 01:05:08;;;;;;;8.77;2.20;;;5.70;99.90;;;;;;5041030;28;20469;-83
2022/01/28 01:07:36;;;;;;;13.87;3.27;;;5.70;99.90;;;;;;5038165;28;20458;-84
2022/01/28 01:10:06;;;;;;;14.10;2.10;;;5.70;99.90;;;;;;5042800;28;20477;-85
2022/01/28 01:12:37;;;;;;;9.30;2.03;;;5.70;99.90;;;;;;5038401;28;20463;-84
2022/01/28 01:15:04;;;;;;;10.33;2.70;;;5.60;99.90;;;;;;5041123;28;20464;-85
2022/01/28 01:17:36;;;;;;;12.50;4.17;;;5.60;99.90;;;;;;5040873;28;20498;-85
2022/01/28 01:20:18;;;;;;;16.53;3.40;;;5.60;99.90;;;;;;5041724;28;20477;-84
2022/01/28 01:22:53;;;;;;;12.10;2.83;;;5.60;99.90;;;;;;5040637;28;20466;-84
2022/01/28 01:25:26;;;;;;;7.57;2.20;;;5.50;99.90;;;;;;5041038;28;20997;-82
2022/01/28 01:27:56;;;;;;;13.17;2.07;;;5.50;99.90;;;;;;5040969;28;20449;-83
2022/01/28 01:30:23;;;;;;;12.83;2.83;;;5.50;99.90;;;;;;5041161;28;20517;-83
2022/01/28 01:32:50;;;;;;;14.13;2.67;;;5.60;99.90;;;;;;5036383;28;20490;-81
2022/01/28 01:35:17;;;;;;;14.00;3.00;;;5.60;99.90;;;;;;5021865;28;20460;-82
2022/01/28 01:37:45;;;;;;;16.40;2.90;;;5.60;99.90;;;;;;5038950;28;20488;-83
2022/01/28 01:40:14;;;;;;;10.90;2.73;;;5.60;99.90;;;;;;5022476;28;20470;-84
2022/01/28 01:42:48;;;;;;;15.07;2.50;;;5.50;99.90;;;;;;5042348;28;20711;-82
2022/01/28 01:53:33;;;;;;;11.40;2.87;;;5.20;99.90;;;;;;5037716;28;20523;-82
2022/01/28 01:56:00;;;;;;;9.20;2.87;;;5.10;99.90;;;;;;5037103;28;20457;-84
2022/01/28 01:58:31;;;;;;;14.53;4.10;;;5.10;99.90;;;;;;5038289;28;20567;-85
2022/01/28 02:00:59;;;;;;;12.50;3.60;;;5.00;99.90;;;;;;5033785;28;21161;-84
2022/01/28 02:03:26;;;;;;;11.47;4.13;;;5.00;99.90;;;;;;5020463;28;20469;-83
2022/01/28 02:05:55;;;;;;;10.23;2.97;;;5.00;99.90;;;;;;5027000;28;20454;-83
2022/01/28 02:08:22;;;;;;;7.73;2.73;;;5.00;99.90;;;;;;5039587;28;20481;-83
2022/01/28 02:10:50;;;;;;;17.03;3.27;;;5.10;99.90;;;;;;5039466;28;20466;-84
2022/01/28 02:13:17;;;;;;;16.97;3.40;;;5.10;99.90;;;;;;5032056;28;20513;-83
2022/01/28 02:15:44;;;;;;;13.83;2.50;;;5.10;99.90;;;;;;5033714;28;20464;-84
2022/01/28 02:18:10;;;;;;;28.53;4.90;;;5.20;99.90;;;;;;5022307;28;20494;-83
2022/01/28 02:20:42;;;;;;;13.30;2.50;;;5.20;99.90;;;;;;5040018;28;20462;-84
2022/01/28 02:23:09;;;;;;;15.23;2.83;;;5.30;99.90;;;;;;5035062;28;20570;-84
2022/01/28 02:25:36;;;;;;;14.83;3.03;;;5.40;99.90;;;;;;5039107;28;20535;-85
2022/01/28 02:28:06;;;;;;;14.23;3.37;;;5.40;99.90;;;;;;5040495;28;20836;-83
2022/01/28 02:30:33;;;;;;;10.20;3.53;;;5.40;99.90;;;;;;5040508;28;20470;-84
2022/01/28 02:33:09;;;;;;;8.80;2.93;;;5.40;99.90;;;;;;5038692;28;20461;-83
2022/01/28 02:35:36;;;;;;;21.03;2.90;;;5.40;99.90;;;;;;5027103;28;20521;-83
2022/01/28 02:38:06;;;;;;;11.77;3.40;;;5.40;99.90;;;;;;5024096;28;20573;-84
2022/01/28 02:40:33;;;;;;;8.77;3.07;;;5.50;99.90;;;;;;5041135;28;20517;-84
2022/01/28 02:43:04;;;;;;;13.20;2.50;;;5.50;99.90;;;;;;5037495;28;20452;-82
2022/01/28 02:45:34;;;;;;;3.93;2.27;;;5.50;99.90;;;;;;5041393;28;20449;-83
2022/01/28 02:48:04;;;;;;;10.87;3.40;;;5.50;99.90;;;;;;5041618;28;20830;-84
2022/01/28 02:50:39;;;;;;;9.10;2.70;;;5.50;99.90;;;;;;5039419;28;20511;-83
2022/01/28 02:53:09;;;;;;;11.60;2.83;;;5.50;99.90;;;;;;5038357;28;20471;-82
2022/01/28 02:55:40;;;;;;;13.83;3.00;;;5.60;99.90;;;;;;5029575;28;20461;-83
2022/01/28 02:58:22;;;;;;;22.27;3.70;;;5.50;99.90;;;;;;5034416;28;20489;-84
2022/01/28 03:00:50;;;;;;;10.53;2.50;;;5.50;99.90;;;;;;5042842;28;20465;-84
2022/01/28 03:03:19;;;;;;;13.37;2.53;;;5.60;99.90;;;;;;5042331;28;20458;-84
2022/01/28 03:05:46;;;;;;;9.77;2.67;;;5.60;99.90;;;;;;5043455;28;20427;-81
2022/01/28 03:08:14;;;;;;;13.50;2.73;;;5.60;99.90;;;;;;5031060;28;20481;-83
2022/01/28 03:13:56;;;;;;;15.13;2.33;;;5.50;99.90;;;;;;5016739;28;21033;-83
2022/01/28 03:16:23;;;;;;;14.60;3.27;;;5.40;99.90;;;;;;5034951;28;20449;-84
2022/01/28 03:18:53;;;;;;;12.43;2.30;;;5.20;99.90;;;;;;5040926;28;21043;-84
2022/01/28 03:21:25;;;;;;;10.70;2.87;;;5.10;99.90;;;;;;5040868;28;20880;-84
2022/01/28 03:23:54;;;;;;;13.53;3.23;;;5.00;99.90;;;;;;5032186;28;20468;-84
2022/01/28 03:26:23;;;;;;;15.30;3.77;;;4.90;99.90;;;;;;5040517;28;21150;-84
2022/01/28 03:28:50;;;;;;;18.20;3.00;;;4.90;99.90;;;;;;5041036;28;20477;-83
2022/01/28 03:31:16;;;;;;;12.90;2.50;;;4.90;99.90;;;;;;5040102;28;20469;-84
2022/01/28 03:33:43;;;;;;;14.60;2.87;;;5.00;99.90;;;;;;5039328;28;21010;-83
2022/01/28 03:36:12;;;;;;;11.03;2.47;;;5.00;99.90;;;;;;5041138;28;20457;-84
2022/01/28 03:38:39;;;;;;;12.90;3.47;;;5.00;99.90;;;;;;5040807;28;20498;-84
2022/01/28 03:41:12;;;;;;;20.47;4.77;;;5.10;99.90;;;;;;5039135;28;20558;-84
2022/01/28 03:43:39;;;;;;;8.10;1.93;;;5.20;99.90;;;;;;5019854;28;20462;-84
2022/01/28 03:46:06;;;;;;;15.77;3.50;;;5.30;99.90;;;;;;5032420;28;20449;-84
2022/01/28 03:48:32;;;;;;;18.07;2.80;;;5.40;99.90;;;;;;5039709;28;20469;-84
2022/01/28 03:50:59;;;;;;;11.03;2.80;;;5.40;99.90;;;;;;5039270;28;20459;-83
2022/01/28 03:53:29;;;;;;;17.10;3.50;;;5.40;99.90;;;;;;5020127;28;20530;-82
2022/01/28 03:55:57;;;;;;;9.33;2.23;;;5.50;99.90;;;;;;5030844;28;20556;-83
2022/01/28 03:58:26;;;;;;;13.90;2.73;;;5.50;99.90;;;;;;5022330;28;20496;-82
2022/01/28 04:00:55;;;;;;;8.10;3.13;;;5.60;99.90;;;;;;5033705;28;20967;-83
2022/01/28 04:03:40;;;;;;;14.00;2.97;;;5.50;99.90;;;;;;5037971;28;20458;-81
2022/01/28 04:11:51;;;;;;;12.03;3.10;;;5.40;99.90;;;;;;5036314;28;20924;-80
2022/01/28 04:14:35;;;;;;;15.17;3.30;;;5.40;99.90;;;;;;5035458;28;20481;-81
2022/01/28 04:17:21;;;;;;;10.47;3.50;;;5.40;99.90;;;;;;5025677;28;20457;-83
2022/01/28 04:19:49;;;;;;;14.20;2.20;;;5.40;99.90;;;;;;5029957;28;20490;-84
2022/01/28 04:22:16;;;;;;;7.63;2.53;;;5.40;99.90;;;;;;5035850;28;20452;-84
2022/01/28 04:24:43;;;;;;;14.83;3.23;;;5.40;99.90;;;;;;5034599;28;20462;-82
2022/01/28 04:27:10;;;;;;;17.27;4.47;;;5.50;99.90;;;;;;5036161;28;20553;-82
2022/01/28 04:29:38;;;;;;;10.83;4.07;;;5.40;99.90;;;;;;5036150;28;20567;-83
2022/01/28 04:32:05;;;;;;;9.17;2.87;;;5.50;99.90;;;;;;5037150;28;20450;-82
2022/01/28 04:34:33;;;;;;;16.67;4.90;;;5.50;99.90;;;;;;5036319;28;20489;-81
2022/01/28 04:37:13;;;;;;;12.03;3.67;;;5.50;99.90;;;;;;5036220;28;20458;-83
2022/01/28 04:39:46;;;;;;;16.47;3.83;;;5.40;99.90;;;;;;5036915;28;21001;-82
2022/01/28 04:42:24;;;;;;;16.03;3.63;;;5.40;99.90;;;;;;5037429;28;20544;-83
2022/01/28 04:45:00;;;;;;;11.10;3.23;;;5.40;99.90;;;;;;5035141;28;20458;-83
2022/01/28 04:47:34;;;;;;;13.30;3.27;;;5.50;99.90;;;;;;5029459;28;20459;-83
2022/01/28 04:50:09;;;;;;;13.10;3.70;;;5.50;99.90;;;;;;5032001;28;20507;-82
2022/01/28 04:55:48;;;;;;;16.27;4.27;;;5.40;99.90;;;;;;5097351;27;20943;-84
2022/01/28 04:58:34;;;;;;;12.33;3.87;;;5.40;99.90;;;;;;5065960;28;20978;-83
2022/01/28 05:01:21;;;;;;;17.50;4.03;;;5.50;99.90;;;;;;5056488;28;20488;-83
2022/01/28 05:04:03;;;;;;;8.37;3.07;;;5.40;99.90;;;;;;5035683;28;20456;-84
2022/01/28 05:07:06;;;;;;;15.13;3.80;;;5.40;99.90;;;;;;5061591;28;20465;-84
2022/01/28 05:10:21;;;;;;;17.00;3.50;;;5.30;99.90;;;;;;5065428;22;20525;-79
2022/01/28 05:16:13;;;;;;;10.13;3.20;;;5.40;99.90;;;;;;5010397;28;20862;-79
2022/01/28 05:26:57;;;;;;;7.10;2.53;;;5.40;99.90;;;;;;5016092;28;20440;-81
2022/01/28 05:29:25;;;;;;;15.53;3.30;;;6.10;99.90;;;;;;5023809;28;20569;-81
2022/01/28 05:31:52;;;;;;;13.23;3.10;;;6.00;99.90;;;;;;5032153;28;20462;-79
2022/01/28 05:34:23;;;;;;;13.60;3.60;;;6.10;99.90;;;;;;5031255;28;20489;-81
2022/01/28 05:36:50;;;;;;;14.27;4.37;;;6.40;99.90;;;;;;5032085;28;20452;-82
2022/01/28 05:39:17;;;;;;;7.17;2.60;;;6.00;99.90;;;;;;5018267;28;20510;-80
2022/01/28 05:41:43;;;;;;;15.53;2.63;;;5.70;99.90;;;;;;5012934;28;20455;-80
2022/01/28 05:44:10;;;;;;;9.43;2.37;;;5.50;99.90;;;;;;5012541;28;20456;-82
2022/01/28 05:46:39;;;;;;;11.63;2.43;;;5.30;99.90;;;;;;5026895;28;20457;-81
2022/01/28 05:49:06;;;;;;;12.87;3.80;;;5.20;99.90;;;;;;5013291;28;21002;-80
2022/01/28 05:51:33;;;;;;;19.30;3.63;;;5.10;99.90;;;;;;5012459;28;20449;-80
2022/01/28 05:54:00;;;;;;;14.43;3.03;;;5.00;99.90;;;;;;5012456;28;21023;-81
2022/01/28 05:56:26;;;;;;;10.00;3.10;;;4.90;99.90;;;;;;5024646;28;20454;-81
2022/01/28 05:58:54;;;;;;;9.03;2.67;;;4.90;99.90;;;;;;5031851;28;20541;-80
2022/01/28 06:01:21;;;;;;;8.90;2.47;;;5.00;99.90;;;;;;5033902;28;20475;-80
2022/01/28 06:03:49;;;;;;;10.10;2.70;;;5.00;99.90;;;;;;5032332;28;20533;-82
2022/01/28 06:06:20;;;;;;;16.90;3.40;;;5.10;99.90;;;;;;5021221;28;20496;-82
2022/01/28 06:08:47;;;;;;;13.93;2.70;;;5.10;99.90;;;;;;5019259;28;20493;-81
2022/01/28 06:11:14;;;;;;;12.63;3.63;;;5.20;99.90;;;;;;5021577;28;20447;-81
2022/01/28 06:13:40;;;;;;;14.43;3.97;;;5.30;99.90;;;;;;5026043;28;20824;-81
2022/01/28 06:16:07;;;;;;;15.63;4.30;;;5.30;99.90;;;;;;5020983;28;20462;-80
2022/01/28 06:18:34;;;;;;;19.30;3.83;;;5.30;99.90;;;;;;5013780;28;20465;-81
2022/01/28 06:21:02;;;;;;;17.10;5.23;;;5.20;99.90;;;;;;5018976;28;20447;-81
2022/01/28 06:23:29;;;;;;;13.07;3.23;;;5.30;99.90;;;;;;5024263;28;20457;-80
2022/01/28 06:25:58;;;;;;;19.53;4.30;;;5.40;99.90;;;;;;5019738;28;20466;-81
2022/01/28 06:28:27;;;;;;;10.20;3.93;;;5.40;99.90;;;;;;5019685;28;20446;-80
2022/01/28 06:30:55;;;;;;;15.93;4.03;;;5.40;99.90;;;;;;5019522;28;20558;-81
2022/01/28 06:33:23;;;;;;;10.57;3.40;;;5.40;99.90;;;;;;5018974;28;20997;-80
2022/01/28 06:35:49;;;;;;;16.33;5.07;;;5.50;99.90;;;;;;5018415;28;20511;-80
2022/01/28 06:38:18;;;;;;;15.53;4.03;;;5.50;99.90;;;;;;5004894;28;20463;-80
2022/01/28 06:40:45;;;;;;;13.73;3.53;;;5.30;99.90;;;;;;5014628;28;20963;-80
2022/01/28 06:43:13;;;;;;;12.90;4.43;;;5.30;99.90;;;;;;5018851;28;20451;-81
2022/01/28 06:45:42;;;;;;;10.00;2.83;;;5.30;99.90;;;;;;5017415;28;20449;-81
2022/01/28 06:48:10;;;;;;;13.20;3.83;;;5.40;99.90;;;;;;5017846;28;20465;-79
2022/01/28 06:50:37;;;;;;;11.53;3.80;;;5.40;99.90;;;;;;5016015;28;20487;-82
2022/01/28 06:53:04;;;;;;;12.13;3.87;;;5.30;99.90;;;;;;5028266;28;20480;-81
2022/01/28 06:55:32;;;;;;;19.23;4.90;;;5.20;99.90;;;;;;5016892;28;20485;-81
2022/01/28 06:57:59;;;;;;;17.03;4.10;;;5.10;99.90;;;;;;5017279;28;20973;-80
2022/01/28 07:00:26;;;;;;;16.47;5.97;;;5.00;99.90;;;;;;5017182;28;20499;-80
2022/01/28 07:02:53;;;;;;;15.27;4.43;;;5.00;99.90;;;;;;5017104;28;20459;-81
2022/01/28 07:05:20;;;;;;;16.93;3.83;;;5.10;99.90;;;;;;5017287;28;20452;-81
2022/01/28 07:07:47;;;;;;;15.43;3.57;;;5.10;99.90;;;;;;5017181;28;20459;-82
2022/01/28 07:10:14;;;;;;;22.30;4.30;;;5.10;99.90;;;;;;5016372;28;20900;-81
2022/01/28 07:12:42;;;;;;;14.70;3.47;;;5.00;99.90;;;;;;5017292;28;20450;-81
2022/01/28 07:15:10;;;;;;;9.70;3.60;;;4.90;99.90;;;;;;5016878;28;20485;-80
2022/01/28 07:17:37;;;;;;;13.60;4.03;;;4.80;99.90;;;;;;4995489;28;20554;-81
2022/01/28 07:20:05;;;;;;;21.10;5.03;;;4.80;99.90;;;;;;4997596;28;21025;-80
2022/01/28 07:22:31;;;;;;;11.43;4.00;;;4.80;99.90;;;;;;5000524;28;20478;-80
2022/01/28 07:24:58;;;;;;;11.20;3.50;;;4.80;99.90;;;;;;5016565;28;20446;-79
2022/01/28 07:27:25;;;;;;;13.00;4.00;;;4.80;99.90;;;;;;5017095;28;20472;-80
2022/01/28 07:29:53;;;;;;;13.77;3.40;;;4.80;99.90;;;;;;5016801;28;20594;-79
2022/01/28 07:32:22;;;;;;;13.60;4.77;;;4.70;99.90;;;;;;5016880;28;20951;-80
2022/01/28 07:34:49;;;;;;;10.50;3.83;;;4.70;99.90;;;;;;5016566;28;20552;-82
2022/01/28 07:37:15;;;;;;;11.87;3.77;;;4.70;99.90;;;;;;5000928;28;20467;-80
2022/01/28 07:39:42;;;;;;;8.97;3.60;;;4.70;99.90;;;;;;4999654;28;20467;-81
2022/01/28 07:42:09;;;;;;;12.17;4.47;;;4.70;99.90;;;;;;5009206;28;20457;-82
2022/01/28 07:44:36;;;;;;;17.50;4.60;;;4.80;99.90;;;;;;5013869;28;20457;-80
2022/01/28 07:47:05;;;;;;;14.93;3.30;;;4.80;99.90;;;;;;5002625;28;20462;-80
2022/01/28 07:49:32;;;;;;;11.17;2.90;;;4.90;99.90;;;;;;4996817;28;20498;-81
2022/01/28 07:51:58;;;;;;;9.23;3.00;;;4.90;99.90;;;;;;5005948;28;20452;-81
2022/01/28 07:54:25;;;;;;;10.60;3.43;;;4.90;99.90;;;;;;5015687;28;20565;-83
2022/01/28 07:56:54;;;;;;;15.30;3.40;;;5.00;99.90;;;;;;5015610;28;20950;-82
2022/01/28 07:59:21;;;;;;;12.87;5.10;;;5.00;99.90;;;;;;5007996;28;20514;-81
2022/01/28 08:01:47;;;;;;;59.00;25.10;;;5.10;99.90;;;;;;5014553;28;20458;-81
2022/01/28 08:04:16;;;;;;;43.77;19.30;;;5.10;99.90;;;;;;5014722;28;20451;-82
2022/01/28 08:06:43;;;;;;;24.57;5.50;;;5.10;99.90;;;;;;5016362;28;20828;-81
2022/01/28 08:09:10;;;;;;;18.37;4.30;;;5.10;99.90;;;;;;5015689;28;20482;-81
2022/01/28 08:11:36;;;;;;;19.53;4.50;;;5.10;99.90;;;;;;5016773;28;20818;-82
2022/01/28 08:14:03;;;;;;;21.07;3.63;;;5.10;99.90;;;;;;5015784;28;20456;-80
2022/01/28 08:16:30;;;;;;;16.73;3.53;;;5.20;99.90;;;;;;5005446;28;20586;-83
2022/01/28 08:18:57;;;;;;;11.30;3.70;;;5.30;99.90;;;;;;5001613;28;20502;-82
2022/01/28 08:21:25;;;;;;;19.40;4.63;;;5.30;99.90;;;;;;5018375;28;20551;-82
2022/01/28 08:23:52;;;;;;;12.73;4.27;;;5.40;99.90;;;;;;5037861;28;20454;-82
2022/01/28 08:26:22;;;;;;;12.10;3.70;;;5.40;99.90;;;;;;5034162;28;20455;-83
2022/01/28 08:28:49;;;;;;;11.80;3.30;;;5.40;99.90;;;;;;5015333;28;20487;-82
2022/01/28 08:31:16;;;;;;;13.20;4.67;;;5.50;99.90;;;;;;5013555;28;20467;-83
2022/01/28 08:33:43;;;;;;;19.33;4.17;;;5.60;99.90;;;;;;5017450;28;20480;-82
2022/01/28 08:36:11;;;;;;;9.70;3.27;;;5.60;99.90;;;;;;5017756;28;20579;-82
2022/01/28 08:38:44;;;;;;;10.47;3.97;;;5.70;99.90;;;;;;5016802;28;20543;-84
2022/01/28 08:41:12;;;;;;;13.20;4.73;;;5.80;99.90;;;;;;5005426;28;20473;-82
2022/01/28 08:43:40;;;;;;;21.77;3.60;;;5.90;99.90;;;;;;5008822;28;20513;-83
2022/01/28 08:46:07;;;;;;;15.00;3.33;;;5.90;99.90;;;;;;5019732;28;20452;-82
2022/01/28 08:48:34;;;;;;;11.37;3.10;;;6.00;99.90;;;;;;5008522;28;20863;-81
2022/01/28 08:51:01;;;;;;;10.07;3.20;;;6.10;99.90;;;;;;5021322;28;20538;-81
2022/01/28 08:53:28;;;;;;;17.50;3.20;;;6.10;99.90;;;;;;5010094;28;20461;-82
2022/01/28 08:55:56;;;;;;;13.93;4.33;;;6.10;99.90;;;;;;5002573;28;21244;-82
2022/01/28 08:58:23;;;;;;;9.33;2.90;;;6.00;99.90;;;;;;5002594;28;20805;-81
2022/01/28 09:00:52;;;;;;;13.03;3.90;;;6.00;99.90;;;;;;5007729;28;20461;-83
2022/01/28 09:03:21;;;;;;;10.87;3.53;;;5.80;99.90;;;;;;5016195;28;20480;-83
2022/01/28 09:05:49;;;;;;;16.87;4.47;;;5.70;99.90;;;;;;5005309;28;20451;-82
2022/01/28 09:08:15;;;;;;;15.27;3.60;;;5.80;99.90;;;;;;5018699;28;20940;-82
2022/01/28 09:10:45;;;;;;;14.60;3.77;;;5.80;99.90;;;;;;5015383;28;20565;-82
2022/01/28 09:13:24;;;;;;;10.60;2.47;;;5.80;99.90;;;;;;4998462;28;20519;-84
2022/01/28 09:15:54;;;;;;;19.73;4.57;;;5.90;99.90;;;;;;5007812;28;20470;-82
2022/01/28 09:18:21;;;;;;;13.40;3.50;;;5.90;99.90;;;;;;5005035;28;20460;-83
2022/01/28 09:20:51;;;;;;;15.03;3.30;;;5.90;99.90;;;;;;5016098;28;20495;-82
2022/01/28 09:23:18;;;;;;;9.57;3.10;;;6.00;99.90;;;;;;5011446;28;20459;-84
2022/01/28 09:25:45;;;;;;;13.90;3.00;;;6.10;99.90;;;;;;5018244;28;20484;-82
2022/01/28 09:28:13;;;;;;;14.97;2.73;;;6.20;99.90;;;;;;5015476;28;20554;-82
2022/01/28 09:30:43;;;;;;;12.90;3.10;;;6.30;99.90;;;;;;4998430;28;20512;-84
2022/01/28 09:33:10;;;;;;;9.70;3.17;;;6.30;99.90;;;;;;4997548;28;20942;-82
2022/01/28 09:35:37;;;;;;;12.27;3.10;;;6.30;99.90;;;;;;4997037;28;20853;-84
2022/01/28 09:38:05;;;;;;;20.73;5.17;;;6.40;99.90;;;;;;4997422;28;20526;-83
2022/01/28 09:40:32;;;;;;;10.03;2.27;;;6.40;99.90;;;;;;5019725;28;20479;-83
2022/01/28 09:43:01;;;;;;;16.00;5.47;;;6.50;99.90;;;;;;5021296;28;20457;-82
2022/01/28 09:45:29;;;;;;;11.87;4.40;;;6.60;99.90;;;;;;5019684;28;20457;-82
2022/01/28 09:47:57;;;;;;;23.27;3.40;;;6.60;99.90;;;;;;5018681;28;20453;-83
2022/01/28 09:50:26;;;;;;;9.83;3.30;;;6.70;99.90;;;;;;5021158;28;20491;-81
2022/01/28 09:52:55;;;;;;;16.13;4.50;;;6.70;99.90;;;;;;5022399;28;20483;-82
2022/01/28 09:55:23;;;;;;;15.83;3.60;;;6.70;99.90;;;;;;5017411;28;20480;-82
2022/01/28 09:57:52;;;;;;;12.77;2.93;;;6.80;99.90;;;;;;5023405;28;20465;-83
2022/01/28 10:00:22;;;;;;;14.87;4.07;;;6.80;99.90;;;;;;5022906;28;20473;-82
2022/01/28 10:02:56;;;;;;;13.03;3.33;;;6.80;99.90;;;;;;5015000;28;20461;-84
2022/01/28 10:05:26;;;;;;;9.27;3.33;;;6.90;99.90;;;;;;5003374;28;20480;-84
2022/01/28 10:08:10;;;;;;;13.17;4.77;;;7.00;99.90;;;;;;5006853;28;20463;-84
2022/01/28 10:10:52;;;;;;;16.00;3.83;;;7.00;99.90;;;;;;5002527;28;20580;-83
2022/01/28 10:13:25;;;;;;;16.77;3.50;;;7.00;99.90;;;;;;5014728;28;20715;-82
2022/01/28 10:15:54;;;;;;;11.73;2.90;;;7.10;99.90;;;;;;5022315;28;20484;-83
2022/01/28 10:18:35;;;;;;;13.77;2.90;;;7.20;99.90;;;;;;5021087;28;20464;-83
2022/01/28 10:21:02;;;;;;;10.00;3.20;;;7.20;99.90;;;;;;5016950;28;20446;-83
2022/01/28 10:23:32;;;;;;;11.20;3.00;;;7.20;99.90;;;;;;5023294;28;20462;-83
2022/01/28 10:26:09;;;;;;;12.27;2.93;;;7.20;99.90;;;;;;5011310;28;20912;-83
2022/01/28 10:28:50;;;;;;;10.77;2.83;;;7.40;99.90;;;;;;5021295;28;20528;-83
2022/01/28 10:31:17;;;;;;;9.07;2.87;;;7.40;99.90;;;;;;5023813;28;20488;-83
2022/01/28 10:33:45;;;;;;;16.03;3.70;;;7.60;99.90;;;;;;5021636;28;20484;-84
2022/01/28 10:36:12;;;;;;;16.30;3.67;;;7.70;99.90;;;;;;5024872;28;20479;-84
2022/01/28 10:38:41;;;;;;;15.23;3.17;;;7.70;99.90;;;;;;5032716;28;21087;-84
2022/01/28 10:41:11;;;;;;;10.57;2.67;;;8.10;99.90;;;;;;5024108;28;20462;-85
2022/01/28 10:43:47;;;;;;;18.53;3.10;;;8.40;99.90;;;;;;5023435;28;20445;-84
2022/01/28 10:46:21;;;;;;;13.00;4.10;;;9.00;99.90;;;;;;5017327;28;20466;-84
2022/01/28 10:48:53;;;;;;;8.43;2.90;;;9.50;99.90;;;;;;5013407;28;20478;-83
2022/01/28 10:51:21;;;;;;;10.07;3.00;;;9.90;99.90;;;;;;5023206;28;20472;-83
2022/01/28 10:54:13;;;;;;;14.60;3.83;;;10.50;99.90;;;;;;5022299;28;20892;-84
2022/01/28 10:56:48;;;;;;;12.30;3.23;;;10.70;99.90;;;;;;4999381;28;20546;-83
2022/01/28 10:59:16;;;;;;;13.73;3.40;;;10.80;99.90;;;;;;5023063;28;20488;-83
2022/01/28 11:01:44;;;;;;;12.33;2.90;;;10.90;99.90;;;;;;5024310;28;22174;-81
2022/01/28 11:04:14;;;;;;;8.67;4.77;;;11.20;99.90;;;;;;5021532;28;20457;-83
2022/01/28 11:06:41;;;;;;;11.93;2.90;;;11.90;99.90;;;;;;5023242;28;20533;-83
2022/01/28 11:09:09;;;;;;;12.37;2.30;;;12.10;99.90;;;;;;5022112;28;20516;-81
2022/01/28 11:11:36;;;;;;;14.93;2.63;;;11.90;99.90;;;;;;5016532;28;20498;-83
2022/01/28 11:14:04;;;;;;;13.33;4.20;;;11.70;99.90;;;;;;5030635;28;20450;-82
2022/01/28 11:16:32;;;;;;;14.07;2.70;;;11.80;99.90;;;;;;5043517;28;20487;-82
2022/01/28 11:19:00;;;;;;;11.00;2.80;;;11.80;99.90;;;;;;5041296;28;20478;-83
2022/01/28 11:21:35;;;;;;;11.70;3.70;;;11.90;99.90;;;;;;5025981;28;20465;-83
2022/01/28 11:24:09;;;;;;;7.93;3.27;;;12.10;99.90;;;;;;5020423;28;20472;-82
2022/01/28 11:26:46;;;;;;;11.43;2.43;;;12.30;99.90;;;;;;5021408;28;20504;-83
2022/01/28 11:29:19;;;;;;;13.57;2.97;;;12.20;99.90;;;;;;5022016;28;20514;-83
2022/01/28 11:31:48;;;;;;;15.73;3.00;;;11.80;99.90;;;;;;5005958;28;20549;-82
2022/01/28 11:34:17;;;;;;;9.50;2.80;;;11.60;99.90;;;;;;5020399;28;20459;-83
2022/01/28 11:36:46;;;;;;;12.80;2.90;;;12.20;99.90;;;;;;5015104;28;20483;-83
2022/01/28 11:39:32;;;;;;;10.83;3.10;;;12.40;99.90;;;;;;5022312;28;20496;-84
2022/01/28 11:42:05;;;;;;;7.73;2.67;;;12.50;99.90;;;;;;5022866;28;20473;-82
2022/01/28 11:44:44;;;;;;;12.33;3.17;;;12.90;99.90;;;;;;5024079;28;21040;-83
2022/01/28 11:47:14;;;;;;;11.10;2.83;;;12.70;99.90;;;;;;5015928;28;20536;-83
2022/01/28 11:49:58;;;;;;;8.07;2.63;;;11.80;99.90;;;;;;5006170;28;20476;-83
2022/01/28 11:52:29;;;;;;;10.53;3.10;;;11.40;99.90;;;;;;5021884;28;20462;-82
2022/01/28 11:54:57;;;;;;;11.40;2.50;;;11.10;99.90;;;;;;5030563;28;20846;-81
2022/01/28 11:57:27;;;;;;;5.20;1.97;;;11.50;99.90;;;;;;5022118;28;20491;-83
2022/01/28 12:00:22;;;;;;;10.50;2.43;;;12.40;99.90;;;;;;5021929;28;20473;-80
2022/01/28 12:02:51;;;;;;;11.37;3.17;;;13.80;99.90;;;;;;5010888;28;20515;-81
2022/01/28 12:05:56;;;;;;;8.60;2.73;;;14.30;99.90;;;;;;5036074;28;20513;-82
2022/01/28 12:08:28;;;;;;;13.33;3.17;;;14.30;99.90;;;;;;5035862;28;20453;-82
2022/01/28 12:10:55;;;;;;;9.30;2.53;;;14.10;99.90;;;;;;5023014;28;20489;-81
2022/01/28 12:13:32;;;;;;;10.20;2.57;;;13.30;99.90;;;;;;5015510;28;20810;-83
2022/01/28 12:16:13;;;;;;;12.00;3.20;;;12.90;99.90;;;;;;5021321;28;20489;-81
2022/01/28 12:18:53;;;;;;;13.37;2.53;;;12.70;99.90;;;;;;5002215;28;20480;-81
2022/01/28 12:21:25;;;;;;;8.60;2.67;;;12.30;99.90;;;;;;5008469;28;20467;-82
2022/01/28 12:23:55;;;;;;;11.73;3.60;;;11.90;99.90;;;;;;5020877;28;20545;-82
2022/01/28 12:26:23;;;;;;;17.43;2.90;;;11.20;99.90;;;;;;5021304;28;20463;-82
2022/01/28 12:28:52;;;;;;;15.37;3.10;;;10.70;99.90;;;;;;5020798;28;20490;-82
2022/01/28 12:31:22;;;;;;;13.40;3.30;;;10.60;99.90;;;;;;5021139;28;20475;-81
2022/01/28 12:33:52;;;;;;;18.13;2.97;;;10.30;99.90;;;;;;5021971;28;20464;-82
2022/01/28 12:36:21;;;;;;;11.43;2.70;;;10.40;99.90;;;;;;5022957;28;20785;-82
2022/01/28 12:39:07;;;;;;;14.07;2.93;;;10.40;99.90;;;;;;5021351;28;20477;-83
2022/01/28 12:41:43;;;;;;;18.03;3.40;;;10.10;99.90;;;;;;5023817;28;21009;-81
2022/01/28 12:44:11;;;;;;;10.70;2.87;;;10.50;99.90;;;;;;5024684;28;20454;-80
2022/01/28 12:46:39;;;;;;;17.07;3.10;;;11.10;99.90;;;;;;5023938;28;20447;-83
2022/01/28 12:49:10;;;;;;;7.80;2.30;;;11.90;99.90;;;;;;5020422;28;20511;-82
2022/01/28 12:51:41;;;;;;;10.70;2.97;;;12.50;99.90;;;;;;5020663;28;20491;-81
2022/01/28 12:54:08;;;;;;;11.93;2.80;;;12.50;99.90;;;;;;5015783;28;20510;-83
2022/01/28 12:56:40;;;;;;;10.20;3.13;;;12.80;99.90;;;;;;5007843;28;20481;-83
2022/01/28 12:59:07;;;;;;;12.73;3.90;;;13.70;99.90;;;;;;5014789;28;20512;-83
2022/01/28 13:01:35;;;;;;;10.03;3.13;;;14.60;99.90;;;;;;5022309;28;20454;-84
2022/01/28 13:04:09;;;;;;;11.93;3.67;;;14.60;99.90;;;;;;5005515;28;20459;-83
2022/01/28 13:06:53;;;;;;;10.60;3.07;;;13.90;99.90;;;;;;5019368;28;20453;-83
2022/01/28 13:09:22;;;;;;;9.80;2.30;;;13.10;99.90;;;;;;5026006;28;20580;-81
2022/01/28 13:11:52;;;;;;;17.40;3.00;;;13.00;99.90;;;;;;5026855;28;20448;-81
2022/01/28 13:14:21;;;;;;;11.90;3.93;;;12.50;99.90;;;;;;5025084;28;20969;-82
2022/01/28 13:16:50;;;;;;;17.53;3.17;;;12.20;99.90;;;;;;5024916;28;20948;-82
2022/01/28 13:19:17;;;;;;;13.80;2.63;;;12.20;99.90;;;;;;5022486;28;20486;-82
2022/01/28 13:21:46;;;;;;;12.60;3.03;;;12.10;99.90;;;;;;5015958;28;20540;-83
2022/01/28 13:24:15;;;;;;;13.67;3.43;;;12.20;99.90;;;;;;5014739;28;20445;-83
2022/01/28 13:27:01;;;;;;;11.73;3.20;;;12.10;99.90;;;;;;5018800;28;20445;-82
2022/01/28 13:29:33;;;;;;;16.43;3.90;;;12.10;99.90;;;;;;5021138;28;20482;-83
2022/01/28 13:32:01;;;;;;;15.40;3.63;;;11.70;99.90;;;;;;5031278;28;20487;-83
2022/01/28 13:34:28;;;;;;;17.13;3.17;;;11.50;99.90;;;;;;5014091;28;20552;-84
2022/01/28 13:36:57;;;;;;;12.00;3.13;;;11.80;99.90;;;;;;5019561;28;21072;-83
2022/01/28 13:39:27;;;;;;;13.93;3.57;;;11.60;99.90;;;;;;5017548;28;20477;-84
2022/01/28 13:42:10;;;;;;;11.63;3.27;;;11.60;99.90;;;;;;5018283;28;20456;-84
2022/01/28 13:44:39;;;;;;;8.63;3.27;;;11.80;99.90;;;;;;5022686;28;20468;-85
2022/01/28 13:47:06;;;;;;;8.88;3.30;;;11.80;99.90;;;;;;5029785;28;20458;-84
2022/01/28 13:49:35;;;;;;;9.80;3.57;;;11.60;99.90;;;;;;5022703;28;20226;-84
2022/01/28 13:52:11;;;;;;;12.40;3.17;;;11.40;99.90;;;;;;5021380;28;20469;-84